createdAt,value
2022-10-19T00:04:56.379Z,13.6
2022-10-19T00:09:58.337Z,12
2022-10-19T00:15:00.530Z,16.7
2022-10-19T00:20:02.641Z,11.2
2022-10-19T00:25:04.658Z,18.4
2022-10-19T00:30:06.744Z,12.2
2022-10-19T00:35:08.887Z,18.2
2022-10-19T00:40:10.990Z,15.1
2022-10-19T00:45:13.075Z,16.6
2022-10-19T00:50:15.296Z,16.7
2022-10-19T00:55:17.459Z,15.9
2022-10-19T01:00:19.835Z,16.8
2022-10-19T01:05:21.882Z,15.2
2022-10-19T01:10:23.941Z,16.6
2022-10-19T01:15:26.164Z,13.2
2022-10-19T01:20:28.387Z,14.6
2022-10-19T01:25:30.593Z,13.3
2022-10-19T01:30:32.726Z,10.8
2022-10-19T01:35:34.842Z,8.8
2022-10-19T01:40:37.042Z,9.9
2022-10-19T01:45:39.041Z,10.8
2022-10-19T01:50:41.385Z,10.1
2022-10-19T01:55:43.715Z,8.8
2022-10-19T02:00:46.072Z,8.9
2022-10-19T02:05:48.505Z,8.5
2022-10-19T02:10:50.689Z,9.4
2022-10-19T02:15:52.795Z,8.8
2022-10-19T02:20:54.946Z,9
2022-10-19T02:25:57.241Z,9.5
2022-10-19T02:30:59.533Z,9.3
2022-10-19T02:36:01.826Z,10.1
2022-10-19T02:41:04.047Z,10.1
2022-10-19T02:46:06.229Z,10.5
2022-10-19T02:51:08.268Z,10.4
2022-10-19T02:56:10.870Z,9.9
2022-10-19T03:01:13.455Z,10.7
2022-10-19T03:06:15.541Z,10.9
2022-10-19T03:11:17.988Z,11.3
2022-10-19T03:16:20.122Z,12
2022-10-19T03:21:22.410Z,12.7
2022-10-19T03:26:24.436Z,12.3
2022-10-19T03:31:26.596Z,12.5
2022-10-19T03:36:28.855Z,12.3
2022-10-19T03:41:30.918Z,11.9
2022-10-19T03:46:32.927Z,12.6
2022-10-19T03:51:35.094Z,12.3
2022-10-19T03:56:37.247Z,12.4
2022-10-19T04:01:39.431Z,12.4
2022-10-19T04:06:41.586Z,12
2022-10-19T04:11:43.855Z,12.4
2022-10-19T04:16:46.099Z,12.6
2022-10-19T04:21:48.372Z,12.9
2022-10-19T04:26:50.365Z,13.2
2022-10-19T04:31:52.597Z,13.8
2022-10-19T04:36:55.760Z,13.6
2022-10-19T04:41:58.000Z,13.6
2022-10-19T04:47:00.209Z,12.8
2022-10-19T04:52:02.514Z,13.4
2022-10-19T04:57:05.105Z,13.3
2022-10-19T05:02:07.244Z,13.4
2022-10-19T05:07:09.462Z,13.2
2022-10-19T05:12:11.720Z,13
2022-10-19T05:17:13.972Z,13.1
2022-10-19T05:22:15.992Z,19.5
2022-10-19T05:27:18.946Z,13.7
2022-10-19T05:32:21.156Z,13.7
2022-10-19T05:37:23.486Z,13.2
2022-10-19T05:42:25.571Z,13.4
2022-10-19T05:47:31.252Z,13.6
2022-10-19T05:52:34.677Z,12.8
2022-10-19T05:57:37.552Z,12.4
2022-10-19T06:02:40.395Z,17.3
2022-10-19T06:07:42.363Z,19.3
2022-10-19T06:12:42.924Z,12.4
2022-10-19T06:17:45.176Z,12
2022-10-19T06:22:47.399Z,13.1
2022-10-19T06:27:49.490Z,13.1
2022-10-19T06:32:52.111Z,13
2022-10-19T06:37:54.672Z,12.2
2022-10-19T06:42:56.792Z,12.6
2022-10-19T06:48:02.231Z,11.8
2022-10-19T06:53:09.164Z,57.7
2022-10-19T06:58:11.522Z,10.5
2022-10-19T07:03:13.847Z,10.8
2022-10-19T07:08:16.099Z,9.4
2022-10-19T07:13:18.399Z,13.5
2022-10-19T07:18:18.782Z,8.7
2022-10-19T07:23:21.294Z,8.1
2022-10-19T07:28:23.406Z,7.7
2022-10-19T07:33:25.554Z,7.4
2022-10-19T07:38:28.117Z,7.2
2022-10-19T07:43:30.187Z,6.1
2022-10-19T07:48:32.421Z,5.6
2022-10-19T07:53:34.881Z,5.1
2022-10-19T07:58:37.461Z,5.7
2022-10-19T08:08:45.823Z,5.7
2022-10-19T08:13:47.943Z,7.2
2022-10-19T08:18:49.971Z,5.6
2022-10-19T08:23:51.999Z,5.7
2022-10-19T08:28:54.077Z,5.4
2022-10-19T08:33:56.432Z,5.1
2022-10-19T08:38:58.566Z,4.7
2022-10-19T08:44:00.705Z,3.8
2022-10-19T08:49:10.071Z,3.4
2022-10-19T08:54:12.382Z,3.1
2022-10-19T08:59:14.511Z,2.8
2022-10-19T09:04:16.558Z,13.1
2022-10-19T09:09:18.637Z,2.7
2022-10-19T09:14:20.814Z,3.2
2022-10-19T09:19:22.864Z,2.9
2022-10-19T09:24:25.138Z,3
2022-10-19T09:29:27.427Z,3
2022-10-19T09:34:29.500Z,3.2
2022-10-19T09:39:31.570Z,2.8
2022-10-19T09:44:33.744Z,2.8
2022-10-19T09:49:36.597Z,2.4
2022-10-19T09:54:38.857Z,2.3
2022-10-19T09:59:41.031Z,2.6
2022-10-19T10:04:43.149Z,2.6
2022-10-19T10:09:45.336Z,2.5
2022-10-19T10:14:47.342Z,2.7
2022-10-19T10:19:49.523Z,2.7
2022-10-19T10:24:51.623Z,2.7
2022-10-19T10:29:53.756Z,18.3
2022-10-19T10:35:01.589Z,4
2022-10-19T10:40:05.736Z,2.8
2022-10-19T10:45:08.183Z,2.7
2022-10-19T10:50:10.506Z,2.6
2022-10-19T10:55:12.720Z,2.6
2022-10-19T11:00:14.929Z,2.6
2022-10-19T11:05:17.483Z,2
2022-10-19T11:10:19.860Z,6.1
2022-10-19T11:15:22.171Z,2.4
2022-10-19T11:20:24.447Z,2.2
2022-10-19T11:25:26.566Z,2.3
2022-10-19T11:30:28.533Z,2
2022-10-19T11:35:30.519Z,2.2
2022-10-19T11:40:32.546Z,3.8
2022-10-19T11:45:34.919Z,2.4
2022-10-19T11:50:36.937Z,3
2022-10-19T11:55:39.039Z,2.9
2022-10-19T12:00:41.506Z,2.4
2022-10-19T12:05:44.171Z,2.2
2022-10-19T12:10:46.420Z,2.4
2022-10-19T12:15:48.976Z,2.4
2022-10-19T12:20:51.308Z,2.6
2022-10-19T12:25:53.402Z,3.9
2022-10-19T12:30:55.856Z,3
2022-10-19T12:35:58.142Z,2.4
2022-10-19T12:41:00.496Z,3
2022-10-19T12:46:02.776Z,2.6
2022-10-19T12:51:05.013Z,2.5
2022-10-19T12:56:07.194Z,2.6
2022-10-19T13:01:09.617Z,2.9
2022-10-19T13:06:12.066Z,3.1
2022-10-19T13:11:14.357Z,2.8
2022-10-19T13:16:16.536Z,2.6
2022-10-19T13:21:18.621Z,2.9
2022-10-19T13:26:21.061Z,3
2022-10-19T13:31:23.658Z,3.4
2022-10-19T13:36:26.169Z,2.8
2022-10-19T13:41:28.309Z,19.4
2022-10-19T13:46:30.384Z,4.3
2022-10-19T13:51:32.492Z,4
2022-10-19T13:56:34.828Z,4.2
2022-10-19T14:01:36.963Z,3.1
2022-10-19T14:06:39.288Z,2.9
2022-10-19T14:11:41.499Z,3.8
2022-10-19T14:16:44.029Z,3.1
2022-10-19T14:21:46.247Z,3
2022-10-19T14:26:48.681Z,1.9
2022-10-19T14:31:50.978Z,1.7
2022-10-19T14:36:53.439Z,2.3
2022-10-19T14:41:55.957Z,1.4
2022-10-19T14:47:04.365Z,1.7
2022-10-19T14:52:06.426Z,1.7
2022-10-19T14:57:08.707Z,1.6
2022-10-19T15:02:10.837Z,1.6
2022-10-19T15:07:13.244Z,2.7
2022-10-19T15:12:15.382Z,1.7
2022-10-19T15:17:21.657Z,1.3
2022-10-19T15:22:23.868Z,1.4
2022-10-19T15:27:26.125Z,2.1
2022-10-19T15:32:28.633Z,1.6
2022-10-19T15:37:30.867Z,1.4
2022-10-19T15:42:34.448Z,1.3
2022-10-19T15:47:38.270Z,1.7
2022-10-19T15:52:40.870Z,1.7
2022-10-19T15:57:43.174Z,1.9
2022-10-19T16:02:45.496Z,2.6
2022-10-19T16:07:47.545Z,3
2022-10-19T16:12:49.586Z,3.7
2022-10-19T16:17:51.816Z,4.5
2022-10-19T16:22:54.014Z,3.7
2022-10-19T16:27:56.086Z,3.9
2022-10-19T16:32:58.300Z,4.1
2022-10-19T16:38:00.349Z,3.8
2022-10-19T16:43:02.637Z,3.7
2022-10-19T16:48:06.067Z,4.4
2022-10-19T16:53:08.339Z,4.1
2022-10-19T16:58:10.980Z,4.5
2022-10-19T17:03:13.086Z,3.2
2022-10-19T17:08:15.144Z,3.2
2022-10-19T17:13:17.743Z,3
2022-10-19T17:18:19.845Z,2.9
2022-10-19T17:23:21.904Z,2.9
2022-10-19T17:28:27.903Z,2.6
2022-10-19T17:33:30.085Z,2.7
2022-10-19T17:38:32.067Z,2.6
2022-10-19T17:43:34.192Z,2.9
2022-10-19T17:48:36.289Z,2.9
2022-10-19T17:53:38.335Z,3.1
2022-10-19T17:58:41.051Z,3.5
2022-10-19T18:03:43.411Z,3.6
2022-10-19T18:08:45.710Z,3.8
2022-10-19T18:13:48.099Z,3.8
2022-10-19T18:18:51.501Z,3.6
2022-10-19T18:23:54.527Z,3.7
2022-10-19T18:28:56.601Z,3.8
2022-10-19T18:33:58.693Z,4.1
2022-10-19T18:39:01.004Z,4.1
2022-10-19T18:44:03.013Z,3.8
2022-10-19T18:49:04.907Z,4.4
2022-10-19T18:54:07.378Z,4.9
2022-10-19T18:59:09.581Z,4.6
2022-10-19T19:04:11.974Z,4.6
2022-10-19T19:09:14.260Z,4.7
2022-10-19T19:14:16.468Z,5
2022-10-19T19:19:18.475Z,4.7
2022-10-19T19:24:20.838Z,4.9
2022-10-19T19:29:22.897Z,4.6
2022-10-19T19:34:25.034Z,4.6
2022-10-19T19:39:27.108Z,4.5
2022-10-19T19:44:29.302Z,4.4
2022-10-19T19:49:31.697Z,4.5
2022-10-19T19:54:33.773Z,4.6
2022-10-19T19:59:36.151Z,4.5
2022-10-19T20:04:38.221Z,4.6
2022-10-19T20:09:40.382Z,4.7
2022-10-19T20:14:42.600Z,4.8
2022-10-19T20:19:44.684Z,4.7
2022-10-19T20:24:46.757Z,4.7
2022-10-19T20:29:49.623Z,4.6
2022-10-19T20:34:51.953Z,4.7
2022-10-19T20:39:53.982Z,5.2
2022-10-19T20:44:56.052Z,5.3
2022-10-19T20:49:58.225Z,5.4
2022-10-19T20:55:00.601Z,5.5
2022-10-19T21:00:02.573Z,5
2022-10-19T21:05:04.840Z,4.8
2022-10-19T21:10:07.066Z,4.7
2022-10-19T21:15:09.100Z,4.9
2022-10-19T21:20:11.241Z,4.3
2022-10-19T21:25:13.529Z,4.7
2022-10-19T21:30:15.733Z,4.8
2022-10-19T21:35:17.715Z,4.4
2022-10-19T21:40:19.890Z,4.4
2022-10-19T21:45:37.241Z,5
2022-10-19T21:50:29.547Z,5
2022-10-19T21:55:31.427Z,5.2
2022-10-19T22:00:33.704Z,5.2
2022-10-19T22:05:35.791Z,5.2
2022-10-19T22:10:37.919Z,5.3
2022-10-19T22:15:39.980Z,5.6
2022-10-19T22:20:42.131Z,5.4
2022-10-19T22:25:44.262Z,5.4
2022-10-19T22:30:46.356Z,5.2
2022-10-19T22:35:48.659Z,5.1
2022-10-19T22:40:50.951Z,5.5
2022-10-19T22:50:55.953Z,5.8
2022-10-19T22:55:58.027Z,5.5
2022-10-19T23:01:00.105Z,6
2022-10-19T23:06:02.455Z,5.4
2022-10-19T23:11:04.473Z,5.5
2022-10-19T23:16:06.564Z,5.5
2022-10-19T23:21:08.792Z,5.3
2022-10-19T23:26:11.069Z,5.4
2022-10-19T23:31:13.306Z,5.5
2022-10-19T23:36:15.351Z,5.6
2022-10-19T23:41:17.473Z,5.6
2022-10-19T23:46:19.728Z,5.8
2022-10-19T23:51:22.233Z,5.7
2022-10-19T23:56:24.498Z,5.6
